Flight Track Log - Related Links

Times and Time Zones

All times are in EDT time to prevent confusion due to time zone crossing. See the TMC806 flight status page for this flight to view local times or setup timezone preferences in your user account.

Time Position Orientation Groundspeed Altitude Reporting Facility
EDT Latitude Longitude Course Direction KTS MPH feet Rate Location/Type
Sun 03:10:05 PM 41.1372 -100.7050 234° Southwest 170 196 4,200  Level Denver Center
Sun 03:11:07 PM 41.1069 -100.7622 235° Southwest 220 253 6,800 2,613 Climbing Denver Center
Sun 03:12:09 PM 41.0639 -100.8489 237° Southwest 250 288 9,600 2,903 Climbing Denver Center
Sun 03:13:11 PM 41.0203 -100.9322 235° Southwest 285 328 12,800 2,661 Climbing Denver Center
Sun 03:14:00 PM 40.7535 -101.3839 234° Southwest  Level FlightAware Approximate
Sun 03:14:13 PM 40.9683 -101.0336 236° Southwest 298 343 15,100  Level Denver Center
Sun 03:15:00 PM 40.6903 -101.4979 234° Southwest  Level FlightAware Approximate
Sun 03:15:15 PM 40.9200 -101.1286 236° Southwest 320 368 17,400  Level Denver Center
Sun 03:16:18 PM 40.8614 -101.2411 235° Southwest 332 382 19,600 2,032 Climbing Denver Center
Sun 03:17:19 PM 40.8083 -101.3431 236° Southwest 348 400 21,600 2,098 Climbing Denver Center
Sun 03:18:21 PM 40.7461 -101.4608 235° Southwest 351 404 23,900 1,887 Climbing Denver Center
Sun 03:19:23 PM 40.6917 -101.5644 235° Southwest 358 412 25,500 1,742 Climbing Denver Center
Sun 03:20:25 PM 40.6250 -101.6906 235° Southwest 375 432 27,500 1,790 Climbing Denver Center
Sun 03:21:27 PM 40.5675 -101.7992 235° Southwest 378 435 29,200 1,597 Climbing Denver Center
Sun 03:22:29 PM 40.4981 -101.9297 235° Southwest 390 449 30,800 1,403 Climbing Denver Center
Sun 03:23:31 PM 40.4347 -102.0444 234° Southwest 403 464 32,100 1,355 Climbing Denver Center
Sun 03:24:33 PM 40.3622 -102.1806 235° Southwest 407 468 33,600 1,161 Climbing Denver Center
Sun 03:25:35 PM 40.2997 -102.2975 235° Southwest 410 472 34,500 677 Climbing Denver Center
Sun 03:26:37 PM 40.2344 -102.4172 234° Southwest 422 486 35,000 242 Climbing Denver Center
Sun 03:27:39 PM 40.1556 -102.5614 234° Southwest 437 503 35,000 194 Level Denver Center
Sun 03:28:41 PM 40.0842 -102.6950 235° Southwest 446 513 35,400 672 Climbing Denver Center
Sun 03:29:44 PM 40.0128 -102.8242 234° Southwest 441 507 36,400 960 Climbing Denver Center
Sun 03:30:46 PM 39.9444 -102.9514 235° Southwest 430 495 37,400 1,016 Climbing Denver Center
Sun 03:31:48 PM 39.8614 -103.1000 234° Southwest 423 487 38,500 968 Climbing Denver Center
Sun 03:32:50 PM 39.7936 -103.2217 234° Southwest 418 481 39,400 726 Climbing Denver Center
Sun 03:33:52 PM 39.7275 -103.3417 234° Southwest 410 472 40,000 290 Climbing Denver Center
Sun 03:34:54 PM 39.6597 -103.4619 234° Southwest 411 473 40,000  Level Denver Center
Sun 03:35:56 PM 39.5917 -103.5856 234° Southwest 419 482 40,000  Level Denver Center
Sun 03:36:58 PM 39.5222 -103.7067 233° Southwest 418 481 40,000  Level Denver Center
Sun 03:38:00 PM 39.4542 -103.8283 234° Southwest 417 480 40,000  Level Denver Center
Sun 03:39:02 PM 39.3803 -103.9772 237° Southwest 409 471 40,000  Level Denver Center
Sun 03:40:04 PM 39.3175 -104.1017 237° Southwest 410 472 40,000  Level Denver Center
Sun 03:41:05 PM 39.2567 -104.2292 238° Southwest 415 478 40,000  Level Denver Center
Sun 03:42:07 PM 39.1953 -104.3533 237° Southwest 411 473 40,000  Level Denver Center
Sun 03:43:09 PM 39.1317 -104.4806 237° Southwest 419 482 40,000  Level Denver Center
Sun 03:44:11 PM 39.0692 -104.6075 238° Southwest 417 480 40,000  Level Denver Center
Sun 03:45:13 PM 39.0061 -104.7339 237° Southwest 418 481 40,000  Level Denver Center
Sun 03:46:15 PM 38.9322 -104.8825 237° Southwest 408 470 40,000  Level Denver Center
Sun 03:47:17 PM 38.8689 -105.0089 237° Southwest 418 481 40,000  Level Denver Center
Sun 03:48:19 PM 38.8058 -105.1342 237° Southwest 419 482 40,000  Level Denver Center
Sun 03:49:21 PM 38.7417 -105.2606 237° Southwest 421 484 40,000  Level Denver Center
Sun 03:50:23 PM 38.6783 -105.3850 237° Southwest 419 482 40,000  Level Denver Center
Sun 03:51:25 PM 38.6136 -105.5108 237° Southwest 423 487 40,000  Level Denver Center
Sun 03:52:27 PM 38.5489 -105.6369 237° Southwest 425 489 40,000  Level Denver Center
Sun 03:53:29 PM 38.4711 -105.7886 237° Southwest 424 488 40,000  Level Denver Center
Sun 03:54:31 PM 38.4092 -105.9078 236° Southwest 427 491 40,000  Level Denver Center
Sun 03:55:33 PM 38.3361 -106.0492 237° Southwest 428 493 40,000  Level Denver Center
Sun 03:56:35 PM 38.2744 -106.1681 237° Southwest 430 495 40,000  Level Denver Center
Sun 03:57:37 PM 38.2092 -106.2911 236° Southwest 426 490 40,000  Level Denver Center
Sun 03:58:39 PM 38.1431 -106.4150 236° Southwest 422 486 40,000  Level Denver Center
Sun 03:59:41 PM 38.0678 -106.5597 237° Southwest 423 487 40,000  Level Denver Center
Sun 04:00:43 PM 38.0050 -106.6781 236° Southwest 422 486 40,000  Level Denver Center
Sun 04:01:45 PM 37.9319 -106.8158 236° Southwest 421 484 40,000  Level Denver Center
Sun 04:02:47 PM 37.8689 -106.9333 236° Southwest 422 486 40,000  Level Denver Center
Sun 04:03:49 PM 37.7981 -107.0656 236° Southwest 420 483 40,000  Level Denver Center
Sun 04:04:51 PM 37.7342 -107.1819 235° Southwest 421 484 40,000  Level Denver Center
Sun 04:05:53 PM 37.6603 -107.3206 236° Southwest 424 488 40,000  Level Denver Center
Sun 04:06:55 PM 37.5969 -107.4367 235° Southwest 421 484 40,000  Level Denver Center
Sun 04:07:57 PM 37.5217 -107.5733 235° Southwest 425 489 40,000  Level Denver Center
Sun 04:08:59 PM 37.4586 -107.6894 236° Southwest 420 483 40,000  Level Denver Center
Sun 04:10:01 PM 37.3839 -107.8256 235° Southwest 422 486 40,000  Level Denver Center
Sun 04:11:03 PM 37.3206 -107.9414 236° Southwest 421 484 40,000  Level Denver Center
Sun 04:12:05 PM 37.2478 -108.0753 236° Southwest 416 479 40,000  Level Denver Center
Sun 04:13:07 PM 37.1833 -108.1900 235° Southwest 420 483 40,000  Level Denver Center
Sun 04:14:09 PM 37.1086 -108.3236 235° Southwest 418 481 40,000  Level Denver Center
Sun 04:15:23 PM 37.0444 -108.4394 235° Southwest 422 486 40,000  Level Denver Center
Sun 04:16:25 PM 36.9589 -108.5911 235° Southwest 419 482 40,000  Level Denver Center
Sun 04:17:27 PM 36.8950 -108.7067 235° Southwest 421 484 40,000  Level Denver Center
Sun 04:18:29 PM 36.8194 -108.8406 235° Southwest 423 487 40,000  Level Denver Center
Sun 04:19:31 PM 36.7544 -108.9536 234° Southwest 420 483 40,000  Level Denver Center
Sun 04:20:33 PM 36.6797 -109.0881 235° Southwest 423 487 40,000  Level Denver Center
Sun 04:21:35 PM 36.6147 -109.2003 234° Southwest 422 486 40,000  Level Denver Center
Sun 04:22:37 PM 36.5389 -109.3325 235° Southwest 422 486 40,000  Level Denver Center
Sun 04:23:40 PM 36.4744 -109.4461 235° Southwest 421 484 40,000  Level Denver Center
Sun 04:24:42 PM 36.3981 -109.5764 234° Southwest 420 483 40,000  Level Denver Center
Sun 04:25:44 PM 36.3344 -109.6881 235° Southwest 416 479 40,000 -290 Level Denver Center
Sun 04:26:46 PM 36.2586 -109.8194 234° Southwest 418 481 39,400 -726 Descending Denver Center
Sun 04:27:48 PM 36.1922 -109.9322 234° Southwest 422 486 38,500 -919 Descending Denver Center
Sun 04:28:50 PM 36.1153 -110.0611 234° Southwest 419 482 37,500 -871 Descending Denver Center
Sun 04:29:52 PM 36.0506 -110.1719 234° Southwest 413 475 36,700 -823 Descending Denver Center
Sun 04:30:54 PM 35.9844 -110.2847 234° Southwest 408 470 35,800 -871 Descending Denver Center
Sun 04:31:56 PM 35.9183 -110.3958 234° Southwest 404 465 34,900 -873 Descending Denver Center
Sun 04:32:44 PM 35.8592 -110.4903 232° Southwest 400 460 34,200 -495 Descending Albuquerque Center
Sun 04:33:45 PM 35.7864 -110.6161 235° Southwest 404 465 34,000 -98 Descending Albuquerque Center
Sun 04:34:47 PM 35.7161 -110.7289 233° Southwest 423 487 34,000  Level Albuquerque Center
Sun 04:35:49 PM 35.6461 -110.8436 233° Southwest 434 499 34,000  Level Albuquerque Center
Sun 04:36:50 PM 35.5653 -110.9797 234° Southwest 440 506 34,000 -195 Level Albuquerque Center
Sun 04:37:52 PM 35.4956 -111.0958 234° Southwest 441 507 33,600 -919 Descending Albuquerque Center
Sun 04:38:54 PM 35.4164 -111.2261 233° Southwest 429 494 32,100 -1,355 Descending Albuquerque Center
Sun 04:39:56 PM 35.3286 -111.3144 219° Southwest 428 493 30,800 -1,268 Descending Albuquerque Center
Sun 04:40:57 PM 35.2228 -111.3781 206° Southwest 439 505 29,500 -1,317 Descending Albuquerque Center
Sun 04:41:59 PM 35.1122 -111.4369 204° Southwest 436 502 28,100 -1,984 Descending Albuquerque Center
Sun 04:43:01 PM 34.9808 -111.5081 204° Southwest 432 497 25,400 -2,419 Descending Albuquerque Center
Sun 04:44:03 PM 34.8758 -111.5647 204° Southwest 419 482 23,100 -2,098 Descending Albuquerque Center
Sun 04:45:04 PM 34.7744 -111.6181 203° Southwest 405 466 21,100 -1,951 Descending Albuquerque Center
Sun 04:46:06 PM 34.6775 -111.6708 204° Southwest 388 447 19,100 -1,790 Descending Albuquerque Center
Sun 04:47:08 PM 34.5831 -111.7206 203° Southwest 377 434 17,400 -1,790 Descending Albuquerque Center
Sun 04:48:10 PM 34.4919 -111.7689 204° Southwest 363 418 15,400 -1,659 Descending Albuquerque Center
Sun 04:49:11 PM 34.4056 -111.8144 204° Southwest 346 398 14,000 -1,463 Descending Albuquerque Center
Sun 04:50:13 PM 34.3039 -111.8672 203° Southwest 334 384 12,400 -1,452 Descending Albuquerque Center
Sun 04:51:15 PM 34.2242 -111.9094 204° Southwest 321 369 11,000 -823 Descending Albuquerque Center
Sun 04:52:17 PM 34.1450 -111.9242 189° South 295 339 10,700 -927 Descending Albuquerque Center
Sun 04:53:18 PM 34.0633 -111.9297 183° South 298 343 9,100 -1,610 Descending Albuquerque Center
Sun 04:54:20 PM 33.9853 -111.9211 175° South 287 330 7,400 -1,016 Descending Albuquerque Center
Sun 04:55:22 PM 33.9039 -111.9022 169° South 250 288 7,000 -244 Descending Albuquerque Center
Sun 04:56:23 PM 33.8375 -111.8864 169° South 245 282 6,900 -537 Descending Albuquerque Center
Sun 04:57:25 PM 33.7769 -111.8722 169° South 225 259 5,900 -1,113 Descending Albuquerque Center
Sun 04:58:27 PM 33.7261 -111.8603 169° South 191 220 4,600 -1,220 Descending Albuquerque Center
Sun 04:59:28 PM 33.6856 -111.8550 174° South 166 191 3,400 -1,220 Descending Albuquerque Center
Sun 05:00:30 PM 33.6458 -111.8828 210° Southwest 146 168 2,100 -919 Descending Albuquerque Center
Sun 05:01:32 PM 33.6244 -111.9100 227° Southwest 139 160 1,500 -581 Descending Albuquerque Center

Login

Don't have an account? Register now (free) for customized features, flight alerts, and more!